<?xml version="1.0" encoding="UTF-8" standalone="no" ?>
<gpx xmlns="http://www.topografix.com/GPX/1/1" xmlns:xsi="http://www.w3.org/2001/XMLSchema-instance" xsi:schemaLocation="http://www.topografix.com/GPX/1/1 http://www.topografix.com/GPX/1/1/gpx.xsd" version="1.1" creator="VisuGPX - https://www.visugpx.com">
  <metadata>
    <name>bord de garonne - coulée verte</name>
    <desc><![CDATA[Petit circuit: 7 km
depart arenes, course en contre bas de la garonne]]></desc>
  </metadata>
  <trk>
    <name><![CDATA[bord de garonne - coulée verte_1]]></name>
    <trkseg>
      <trkpt lat="43.59466" lon="1.41636">
        <ele>140</ele>
        <time>2017-05-10T11:03:13Z</time>
      </trkpt>
      <trkpt lat="43.59466" lon="1.41636">
        <ele>137.9</ele>
        <time>2017-05-10T11:03:13Z</time>
      </trkpt>
      <trkpt lat="43.59461" lon="1.41605">
        <ele>140.7</ele>
        <time>2017-05-10T11:03:16Z</time>
      </trkpt>
      <trkpt lat="43.59471" lon="1.41613">
        <ele>140.6</ele>
        <time>2017-05-10T11:03:20Z</time>
      </trkpt>
      <trkpt lat="43.59475" lon="1.41618">
        <ele>140.5</ele>
        <time>2017-05-10T11:03:24Z</time>
      </trkpt>
      <trkpt lat="43.59522" lon="1.41644">
        <ele>139.2</ele>
        <time>2017-05-10T11:03:26Z</time>
      </trkpt>
      <trkpt lat="43.59509" lon="1.41606">
        <ele>136.8</ele>
        <time>2017-05-10T11:03:35Z</time>
      </trkpt>
      <trkpt lat="43.5952" lon="1.41571">
        <ele>137.7</ele>
        <time>2017-05-10T11:03:45Z</time>
      </trkpt>
      <trkpt lat="43.5953" lon="1.41584">
        <ele>137.9</ele>
        <time>2017-05-10T11:03:49Z</time>
      </trkpt>
      <trkpt lat="43.59534" lon="1.4159">
        <ele>137.9</ele>
        <time>2017-05-10T11:03:53Z</time>
      </trkpt>
      <trkpt lat="43.59534" lon="1.4159">
        <ele>139</ele>
        <time>2017-05-10T11:03:53Z</time>
      </trkpt>
      <trkpt lat="43.59534" lon="1.4159">
        <ele>139</ele>
        <time>2017-05-10T11:04:02Z</time>
      </trkpt>
      <trkpt lat="43.59559" lon="1.41578">
        <ele>137.9</ele>
        <time>2017-05-10T11:04:08Z</time>
      </trkpt>
      <trkpt lat="43.59582" lon="1.41599">
        <ele>137.9</ele>
        <time>2017-05-10T11:04:14Z</time>
      </trkpt>
      <trkpt lat="43.59605" lon="1.41621">
        <ele>137.9</ele>
        <time>2017-05-10T11:04:19Z</time>
      </trkpt>
      <trkpt lat="43.59619" lon="1.41638">
        <ele>137.9</ele>
        <time>2017-05-10T11:04:30Z</time>
      </trkpt>
      <trkpt lat="43.59632" lon="1.4166">
        <ele>137.9</ele>
        <time>2017-05-10T11:04:40Z</time>
      </trkpt>
      <trkpt lat="43.59636" lon="1.41667">
        <ele>137.9</ele>
        <time>2017-05-10T11:04:42Z</time>
      </trkpt>
      <trkpt lat="43.59632" lon="1.41672">
        <ele>137.9</ele>
        <time>2017-05-10T11:04:45Z</time>
      </trkpt>
      <trkpt lat="43.59636" lon="1.41712">
        <ele>137.9</ele>
        <time>2017-05-10T11:04:53Z</time>
      </trkpt>
      <trkpt lat="43.59662" lon="1.41729">
        <ele>137.9</ele>
        <time>2017-05-10T11:05:03Z</time>
      </trkpt>
      <trkpt lat="43.59674" lon="1.41743">
        <ele>137.9</ele>
        <time>2017-05-10T11:05:10Z</time>
      </trkpt>
      <trkpt lat="43.59681" lon="1.41753">
        <ele>137.9</ele>
        <time>2017-05-10T11:05:14Z</time>
      </trkpt>
      <trkpt lat="43.59687" lon="1.41756">
        <ele>137.9</ele>
        <time>2017-05-10T11:05:17Z</time>
      </trkpt>
      <trkpt lat="43.59692" lon="1.41759">
        <ele>137.9</ele>
        <time>2017-05-10T11:05:19Z</time>
      </trkpt>
      <trkpt lat="43.59705" lon="1.4177">
        <ele>137.9</ele>
        <time>2017-05-10T11:05:25Z</time>
      </trkpt>
      <trkpt lat="43.59709" lon="1.4177">
        <ele>137.9</ele>
        <time>2017-05-10T11:05:27Z</time>
      </trkpt>
      <trkpt lat="43.59713" lon="1.41776">
        <ele>137.9</ele>
        <time>2017-05-10T11:05:30Z</time>
      </trkpt>
      <trkpt lat="43.5972" lon="1.41785">
        <ele>137.9</ele>
        <time>2017-05-10T11:05:34Z</time>
      </trkpt>
      <trkpt lat="43.59729" lon="1.41789">
        <ele>137.9</ele>
        <time>2017-05-10T11:05:38Z</time>
      </trkpt>
      <trkpt lat="43.59733" lon="1.41791">
        <ele>137.9</ele>
        <time>2017-05-10T11:05:41Z</time>
      </trkpt>
      <trkpt lat="43.59755" lon="1.41801">
        <ele>137.9</ele>
        <time>2017-05-10T11:05:51Z</time>
      </trkpt>
      <trkpt lat="43.59777" lon="1.41828">
        <ele>137.9</ele>
        <time>2017-05-10T11:06:00Z</time>
      </trkpt>
      <trkpt lat="43.59798" lon="1.41836">
        <ele>137.9</ele>
        <time>2017-05-10T11:06:10Z</time>
      </trkpt>
      <trkpt lat="43.59816" lon="1.41833">
        <ele>137.9</ele>
        <time>2017-05-10T11:06:21Z</time>
      </trkpt>
      <trkpt lat="43.59828" lon="1.41843">
        <ele>137.9</ele>
        <time>2017-05-10T11:06:26Z</time>
      </trkpt>
      <trkpt lat="43.59833" lon="1.41845">
        <ele>137.9</ele>
        <time>2017-05-10T11:06:29Z</time>
      </trkpt>
      <trkpt lat="43.59844" lon="1.41843">
        <ele>137.9</ele>
        <time>2017-05-10T11:06:37Z</time>
      </trkpt>
      <trkpt lat="43.59849" lon="1.41843">
        <ele>137.9</ele>
        <time>2017-05-10T11:06:38Z</time>
      </trkpt>
      <trkpt lat="43.59854" lon="1.41838">
        <ele>136.9</ele>
        <time>2017-05-10T11:06:42Z</time>
      </trkpt>
      <trkpt lat="43.59854" lon="1.41838">
        <ele>139</ele>
        <time>2017-05-10T11:06:42Z</time>
      </trkpt>
      <trkpt lat="43.59854" lon="1.41838">
        <ele>139</ele>
        <time>2017-05-10T11:06:47Z</time>
      </trkpt>
      <trkpt lat="43.59871" lon="1.4182">
        <ele>137.7</ele>
        <time>2017-05-10T11:06:51Z</time>
      </trkpt>
      <trkpt lat="43.59876" lon="1.41818">
        <ele>137.6</ele>
        <time>2017-05-10T11:06:52Z</time>
      </trkpt>
      <trkpt lat="43.59876" lon="1.41818">
        <ele>139</ele>
        <time>2017-05-10T11:06:53Z</time>
      </trkpt>
      <trkpt lat="43.59876" lon="1.41818">
        <ele>139</ele>
        <time>2017-05-10T11:06:58Z</time>
      </trkpt>
      <trkpt lat="43.599" lon="1.41799">
        <ele>136.9</ele>
        <time>2017-05-10T11:07:04Z</time>
      </trkpt>
      <trkpt lat="43.59927" lon="1.418">
        <ele>136.9</ele>
        <time>2017-05-10T11:07:14Z</time>
      </trkpt>
      <trkpt lat="43.59945" lon="1.41803">
        <ele>136.9</ele>
        <time>2017-05-10T11:07:27Z</time>
      </trkpt>
      <trkpt lat="43.59945" lon="1.41803">
        <ele>136.9</ele>
        <time>2017-05-10T11:07:28Z</time>
      </trkpt>
      <trkpt lat="43.59947" lon="1.418">
        <ele>136.9</ele>
        <time>2017-05-10T11:07:32Z</time>
      </trkpt>
      <trkpt lat="43.59947" lon="1.418">
        <ele>139</ele>
        <time>2017-05-10T11:07:32Z</time>
      </trkpt>
      <trkpt lat="43.59947" lon="1.418">
        <ele>139</ele>
        <time>2017-05-10T11:07:38Z</time>
      </trkpt>
      <trkpt lat="43.59971" lon="1.41791">
        <ele>136.9</ele>
        <time>2017-05-10T11:07:41Z</time>
      </trkpt>
      <trkpt lat="43.59995" lon="1.41824">
        <ele>136.9</ele>
        <time>2017-05-10T11:07:51Z</time>
      </trkpt>
      <trkpt lat="43.60024" lon="1.41819">
        <ele>136.9</ele>
        <time>2017-05-10T11:07:58Z</time>
      </trkpt>
      <trkpt lat="43.60042" lon="1.41815">
        <ele>136.9</ele>
        <time>2017-05-10T11:08:10Z</time>
      </trkpt>
      <trkpt lat="43.60068" lon="1.41822">
        <ele>136.9</ele>
        <time>2017-05-10T11:08:20Z</time>
      </trkpt>
      <trkpt lat="43.60095" lon="1.41831">
        <ele>136.9</ele>
        <time>2017-05-10T11:08:31Z</time>
      </trkpt>
      <trkpt lat="43.60119" lon="1.41818">
        <ele>136.7</ele>
        <time>2017-05-10T11:08:41Z</time>
      </trkpt>
      <trkpt lat="43.60129" lon="1.41785">
        <ele>136.1</ele>
        <time>2017-05-10T11:08:51Z</time>
      </trkpt>
      <trkpt lat="43.60137" lon="1.41762">
        <ele>135.5</ele>
        <time>2017-05-10T11:09:01Z</time>
      </trkpt>
      <trkpt lat="43.60144" lon="1.41737">
        <ele>135.4</ele>
        <time>2017-05-10T11:09:11Z</time>
      </trkpt>
      <trkpt lat="43.60159" lon="1.417">
        <ele>135.4</ele>
        <time>2017-05-10T11:09:20Z</time>
      </trkpt>
      <trkpt lat="43.60166" lon="1.41671">
        <ele>135.4</ele>
        <time>2017-05-10T11:09:30Z</time>
      </trkpt>
      <trkpt lat="43.60176" lon="1.41637">
        <ele>135.4</ele>
        <time>2017-05-10T11:09:40Z</time>
      </trkpt>
      <trkpt lat="43.60178" lon="1.4161">
        <ele>135.4</ele>
        <time>2017-05-10T11:09:51Z</time>
      </trkpt>
      <trkpt lat="43.60188" lon="1.41583">
        <ele>135.4</ele>
        <time>2017-05-10T11:10:01Z</time>
      </trkpt>
      <trkpt lat="43.60206" lon="1.41572">
        <ele>135.4</ele>
        <time>2017-05-10T11:10:18Z</time>
      </trkpt>
      <trkpt lat="43.60233" lon="1.41566">
        <ele>135.5</ele>
        <time>2017-05-10T11:10:28Z</time>
      </trkpt>
      <trkpt lat="43.60257" lon="1.41576">
        <ele>135.5</ele>
        <time>2017-05-10T11:10:38Z</time>
      </trkpt>
      <trkpt lat="43.60278" lon="1.4158">
        <ele>136</ele>
        <time>2017-05-10T11:10:48Z</time>
      </trkpt>
      <trkpt lat="43.60295" lon="1.41588">
        <ele>136</ele>
        <time>2017-05-10T11:10:58Z</time>
      </trkpt>
      <trkpt lat="43.60312" lon="1.41624">
        <ele>136</ele>
        <time>2017-05-10T11:11:05Z</time>
      </trkpt>
      <trkpt lat="43.60331" lon="1.41643">
        <ele>136</ele>
        <time>2017-05-10T11:11:15Z</time>
      </trkpt>
      <trkpt lat="43.60347" lon="1.41663">
        <ele>134.7</ele>
        <time>2017-05-10T11:11:25Z</time>
      </trkpt>
      <trkpt lat="43.60368" lon="1.41678">
        <ele>134.2</ele>
        <time>2017-05-10T11:11:35Z</time>
      </trkpt>
      <trkpt lat="43.60385" lon="1.41696">
        <ele>132.7</ele>
        <time>2017-05-10T11:11:45Z</time>
      </trkpt>
      <trkpt lat="43.60401" lon="1.41717">
        <ele>131.6</ele>
        <time>2017-05-10T11:11:55Z</time>
      </trkpt>
      <trkpt lat="43.60422" lon="1.4173">
        <ele>131.5</ele>
        <time>2017-05-10T11:12:05Z</time>
      </trkpt>
      <trkpt lat="43.60434" lon="1.41745">
        <ele>131.4</ele>
        <time>2017-05-10T11:12:14Z</time>
      </trkpt>
      <trkpt lat="43.60438" lon="1.41749">
        <ele>131.4</ele>
        <time>2017-05-10T11:12:16Z</time>
      </trkpt>
      <trkpt lat="43.60441" lon="1.41754">
        <ele>131.4</ele>
        <time>2017-05-10T11:12:18Z</time>
      </trkpt>
      <trkpt lat="43.60443" lon="1.4176">
        <ele>131.4</ele>
        <time>2017-05-10T11:12:19Z</time>
      </trkpt>
      <trkpt lat="43.60445" lon="1.41768">
        <ele>131.4</ele>
        <time>2017-05-10T11:12:22Z</time>
      </trkpt>
      <trkpt lat="43.60452" lon="1.41773">
        <ele>131.4</ele>
        <time>2017-05-10T11:12:24Z</time>
      </trkpt>
      <trkpt lat="43.60474" lon="1.41788">
        <ele>131.4</ele>
        <time>2017-05-10T11:12:34Z</time>
      </trkpt>
      <trkpt lat="43.60484" lon="1.41774">
        <ele>131.5</ele>
        <time>2017-05-10T11:12:42Z</time>
      </trkpt>
      <trkpt lat="43.60488" lon="1.41761">
        <ele>131.5</ele>
        <time>2017-05-10T11:12:46Z</time>
      </trkpt>
      <trkpt lat="43.60494" lon="1.41749">
        <ele>131.5</ele>
        <time>2017-05-10T11:12:51Z</time>
      </trkpt>
      <trkpt lat="43.60501" lon="1.41736">
        <ele>131.5</ele>
        <time>2017-05-10T11:12:57Z</time>
      </trkpt>
      <trkpt lat="43.60507" lon="1.41719">
        <ele>132</ele>
        <time>2017-05-10T11:13:05Z</time>
      </trkpt>
      <trkpt lat="43.60515" lon="1.417">
        <ele>133.5</ele>
        <time>2017-05-10T11:13:12Z</time>
      </trkpt>
      <trkpt lat="43.60524" lon="1.41681">
        <ele>133.8</ele>
        <time>2017-05-10T11:13:19Z</time>
      </trkpt>
      <trkpt lat="43.60526" lon="1.41675">
        <ele>134.1</ele>
        <time>2017-05-10T11:13:22Z</time>
      </trkpt>
      <trkpt lat="43.60529" lon="1.41669">
        <ele>134.1</ele>
        <time>2017-05-10T11:13:24Z</time>
      </trkpt>
      <trkpt lat="43.60532" lon="1.41662">
        <ele>134.1</ele>
        <time>2017-05-10T11:13:26Z</time>
      </trkpt>
      <trkpt lat="43.60534" lon="1.41656">
        <ele>134.2</ele>
        <time>2017-05-10T11:13:29Z</time>
      </trkpt>
      <trkpt lat="43.60541" lon="1.41637">
        <ele>134.2</ele>
        <time>2017-05-10T11:13:36Z</time>
      </trkpt>
      <trkpt lat="43.6055" lon="1.4162">
        <ele>134.2</ele>
        <time>2017-05-10T11:13:43Z</time>
      </trkpt>
      <trkpt lat="43.60556" lon="1.41609">
        <ele>134.2</ele>
        <time>2017-05-10T11:13:48Z</time>
      </trkpt>
      <trkpt lat="43.60565" lon="1.41595">
        <ele>134.2</ele>
        <time>2017-05-10T11:13:51Z</time>
      </trkpt>
      <trkpt lat="43.60573" lon="1.41587">
        <ele>134.2</ele>
        <time>2017-05-10T11:13:55Z</time>
      </trkpt>
      <trkpt lat="43.60577" lon="1.4158">
        <ele>134.2</ele>
        <time>2017-05-10T11:13:57Z</time>
      </trkpt>
      <trkpt lat="43.6058" lon="1.41574">
        <ele>134.2</ele>
        <time>2017-05-10T11:13:59Z</time>
      </trkpt>
      <trkpt lat="43.60588" lon="1.4156">
        <ele>134.2</ele>
        <time>2017-05-10T11:14:04Z</time>
      </trkpt>
      <trkpt lat="43.60595" lon="1.41547">
        <ele>134.2</ele>
        <time>2017-05-10T11:14:09Z</time>
      </trkpt>
      <trkpt lat="43.60602" lon="1.41536">
        <ele>134.1</ele>
        <time>2017-05-10T11:14:14Z</time>
      </trkpt>
      <trkpt lat="43.60606" lon="1.41531">
        <ele>134</ele>
        <time>2017-05-10T11:14:16Z</time>
      </trkpt>
      <trkpt lat="43.60609" lon="1.41526">
        <ele>134</ele>
        <time>2017-05-10T11:14:18Z</time>
      </trkpt>
      <trkpt lat="43.60614" lon="1.41517">
        <ele>133.8</ele>
        <time>2017-05-10T11:14:22Z</time>
      </trkpt>
      <trkpt lat="43.60617" lon="1.41512">
        <ele>133.8</ele>
        <time>2017-05-10T11:14:25Z</time>
      </trkpt>
      <trkpt lat="43.6062" lon="1.41507">
        <ele>133.8</ele>
        <time>2017-05-10T11:14:26Z</time>
      </trkpt>
      <trkpt lat="43.60624" lon="1.415">
        <ele>133.8</ele>
        <time>2017-05-10T11:14:29Z</time>
      </trkpt>
      <trkpt lat="43.60635" lon="1.41484">
        <ele>133.8</ele>
        <time>2017-05-10T11:14:36Z</time>
      </trkpt>
      <trkpt lat="43.60642" lon="1.41472">
        <ele>133.7</ele>
        <time>2017-05-10T11:14:41Z</time>
      </trkpt>
      <trkpt lat="43.6065" lon="1.41458">
        <ele>133.7</ele>
        <time>2017-05-10T11:14:47Z</time>
      </trkpt>
      <trkpt lat="43.60656" lon="1.41448">
        <ele>133.7</ele>
        <time>2017-05-10T11:14:51Z</time>
      </trkpt>
      <trkpt lat="43.60664" lon="1.41438">
        <ele>133.6</ele>
        <time>2017-05-10T11:14:56Z</time>
      </trkpt>
      <trkpt lat="43.60673" lon="1.41422">
        <ele>133.5</ele>
        <time>2017-05-10T11:15:04Z</time>
      </trkpt>
      <trkpt lat="43.6068" lon="1.4141">
        <ele>133.5</ele>
        <time>2017-05-10T11:15:08Z</time>
      </trkpt>
      <trkpt lat="43.60686" lon="1.41399">
        <ele>133.5</ele>
        <time>2017-05-10T11:15:13Z</time>
      </trkpt>
      <trkpt lat="43.60697" lon="1.41381">
        <ele>133.4</ele>
        <time>2017-05-10T11:15:20Z</time>
      </trkpt>
      <trkpt lat="43.60703" lon="1.41371">
        <ele>133.4</ele>
        <time>2017-05-10T11:15:24Z</time>
      </trkpt>
      <trkpt lat="43.60709" lon="1.41361">
        <ele>133.4</ele>
        <time>2017-05-10T11:15:29Z</time>
      </trkpt>
      <trkpt lat="43.60716" lon="1.41352">
        <ele>133.3</ele>
        <time>2017-05-10T11:15:34Z</time>
      </trkpt>
      <trkpt lat="43.60722" lon="1.41341">
        <ele>133.3</ele>
        <time>2017-05-10T11:15:38Z</time>
      </trkpt>
      <trkpt lat="43.60728" lon="1.41329">
        <ele>133.3</ele>
        <time>2017-05-10T11:15:43Z</time>
      </trkpt>
      <trkpt lat="43.60735" lon="1.41318">
        <ele>133.2</ele>
        <time>2017-05-10T11:15:47Z</time>
      </trkpt>
      <trkpt lat="43.60745" lon="1.41303">
        <ele>133.1</ele>
        <time>2017-05-10T11:15:54Z</time>
      </trkpt>
      <trkpt lat="43.60751" lon="1.41292">
        <ele>133.1</ele>
        <time>2017-05-10T11:15:59Z</time>
      </trkpt>
      <trkpt lat="43.6076" lon="1.41278">
        <ele>133.1</ele>
        <time>2017-05-10T11:16:05Z</time>
      </trkpt>
      <trkpt lat="43.60768" lon="1.41262">
        <ele>133.1</ele>
        <time>2017-05-10T11:16:11Z</time>
      </trkpt>
      <trkpt lat="43.60776" lon="1.41253">
        <ele>133</ele>
        <time>2017-05-10T11:16:17Z</time>
      </trkpt>
      <trkpt lat="43.60782" lon="1.41242">
        <ele>133</ele>
        <time>2017-05-10T11:16:21Z</time>
      </trkpt>
      <trkpt lat="43.60788" lon="1.41232">
        <ele>133</ele>
        <time>2017-05-10T11:16:25Z</time>
      </trkpt>
      <trkpt lat="43.60795" lon="1.41219">
        <ele>133</ele>
        <time>2017-05-10T11:16:30Z</time>
      </trkpt>
      <trkpt lat="43.60802" lon="1.412">
        <ele>133</ele>
        <time>2017-05-10T11:16:36Z</time>
      </trkpt>
      <trkpt lat="43.60809" lon="1.41184">
        <ele>133</ele>
        <time>2017-05-10T11:16:41Z</time>
      </trkpt>
      <trkpt lat="43.60816" lon="1.41167">
        <ele>133</ele>
        <time>2017-05-10T11:16:47Z</time>
      </trkpt>
      <trkpt lat="43.60818" lon="1.4116">
        <ele>133</ele>
        <time>2017-05-10T11:16:49Z</time>
      </trkpt>
      <trkpt lat="43.60818" lon="1.41153">
        <ele>133</ele>
        <time>2017-05-10T11:16:51Z</time>
      </trkpt>
      <trkpt lat="43.60816" lon="1.41139">
        <ele>132.9</ele>
        <time>2017-05-10T11:16:56Z</time>
      </trkpt>
      <trkpt lat="43.60813" lon="1.41122">
        <ele>132.9</ele>
        <time>2017-05-10T11:17:01Z</time>
      </trkpt>
      <trkpt lat="43.60812" lon="1.41115">
        <ele>132.6</ele>
        <time>2017-05-10T11:17:04Z</time>
      </trkpt>
      <trkpt lat="43.60814" lon="1.41109">
        <ele>132.6</ele>
        <time>2017-05-10T11:17:06Z</time>
      </trkpt>
      <trkpt lat="43.60821" lon="1.41092">
        <ele>131.6</ele>
        <time>2017-05-10T11:17:12Z</time>
      </trkpt>
      <trkpt lat="43.60828" lon="1.41083">
        <ele>131.1</ele>
        <time>2017-05-10T11:17:18Z</time>
      </trkpt>
      <trkpt lat="43.60841" lon="1.41088">
        <ele>131.1</ele>
        <time>2017-05-10T11:17:36Z</time>
      </trkpt>
      <trkpt lat="43.60848" lon="1.41103">
        <ele>131.2</ele>
        <time>2017-05-10T11:17:42Z</time>
      </trkpt>
      <trkpt lat="43.60854" lon="1.41121">
        <ele>132.7</ele>
        <time>2017-05-10T11:17:50Z</time>
      </trkpt>
      <trkpt lat="43.60858" lon="1.41133">
        <ele>134</ele>
        <time>2017-05-10T11:17:55Z</time>
      </trkpt>
      <trkpt lat="43.60863" lon="1.41145">
        <ele>136.3</ele>
        <time>2017-05-10T11:17:59Z</time>
      </trkpt>
      <trkpt lat="43.60871" lon="1.41161">
        <ele>136.8</ele>
        <time>2017-05-10T11:18:03Z</time>
      </trkpt>
      <trkpt lat="43.60879" lon="1.4117">
        <ele>137.2</ele>
        <time>2017-05-10T11:18:06Z</time>
      </trkpt>
      <trkpt lat="43.60886" lon="1.41182">
        <ele>137.2</ele>
        <time>2017-05-10T11:18:11Z</time>
      </trkpt>
      <trkpt lat="43.60892" lon="1.41193">
        <ele>137.3</ele>
        <time>2017-05-10T11:18:15Z</time>
      </trkpt>
      <trkpt lat="43.60895" lon="1.41198">
        <ele>137.3</ele>
        <time>2017-05-10T11:18:18Z</time>
      </trkpt>
      <trkpt lat="43.60899" lon="1.41207">
        <ele>137.3</ele>
        <time>2017-05-10T11:18:20Z</time>
      </trkpt>
      <trkpt lat="43.60905" lon="1.4122">
        <ele>137.3</ele>
        <time>2017-05-10T11:18:25Z</time>
      </trkpt>
      <trkpt lat="43.60914" lon="1.41235">
        <ele>137.3</ele>
        <time>2017-05-10T11:18:32Z</time>
      </trkpt>
      <trkpt lat="43.60923" lon="1.4125">
        <ele>137.3</ele>
        <time>2017-05-10T11:18:40Z</time>
      </trkpt>
      <trkpt lat="43.6093" lon="1.41263">
        <ele>137.3</ele>
        <time>2017-05-10T11:18:45Z</time>
      </trkpt>
      <trkpt lat="43.60934" lon="1.41271">
        <ele>137.3</ele>
        <time>2017-05-10T11:18:48Z</time>
      </trkpt>
      <trkpt lat="43.60936" lon="1.41277">
        <ele>137.3</ele>
        <time>2017-05-10T11:18:50Z</time>
      </trkpt>
      <trkpt lat="43.6094" lon="1.41293">
        <ele>137.2</ele>
        <time>2017-05-10T11:18:55Z</time>
      </trkpt>
      <trkpt lat="43.60926" lon="1.41316">
        <ele>137</ele>
        <time>2017-05-10T11:19:05Z</time>
      </trkpt>
      <trkpt lat="43.6092" lon="1.41328">
        <ele>137</ele>
        <time>2017-05-10T11:19:10Z</time>
      </trkpt>
      <trkpt lat="43.60906" lon="1.41353">
        <ele>136.8</ele>
        <time>2017-05-10T11:19:20Z</time>
      </trkpt>
      <trkpt lat="43.60911" lon="1.41361">
        <ele>135.6</ele>
        <time>2017-05-10T11:19:27Z</time>
      </trkpt>
      <trkpt lat="43.60908" lon="1.41366">
        <ele>135.3</ele>
        <time>2017-05-10T11:19:32Z</time>
      </trkpt>
      <trkpt lat="43.60898" lon="1.41382">
        <ele>133.2</ele>
        <time>2017-05-10T11:19:40Z</time>
      </trkpt>
      <trkpt lat="43.60888" lon="1.41398">
        <ele>132.9</ele>
        <time>2017-05-10T11:19:45Z</time>
      </trkpt>
      <trkpt lat="43.60881" lon="1.41411">
        <ele>132.4</ele>
        <time>2017-05-10T11:19:50Z</time>
      </trkpt>
      <trkpt lat="43.60871" lon="1.41435">
        <ele>131.2</ele>
        <time>2017-05-10T11:20:00Z</time>
      </trkpt>
      <trkpt lat="43.60853" lon="1.41462">
        <ele>130.7</ele>
        <time>2017-05-10T11:20:10Z</time>
      </trkpt>
      <trkpt lat="43.60847" lon="1.41473">
        <ele>130.6</ele>
        <time>2017-05-10T11:20:15Z</time>
      </trkpt>
      <trkpt lat="43.60844" lon="1.41479">
        <ele>130.6</ele>
        <time>2017-05-10T11:20:17Z</time>
      </trkpt>
      <trkpt lat="43.6084" lon="1.41486">
        <ele>130.6</ele>
        <time>2017-05-10T11:20:20Z</time>
      </trkpt>
      <trkpt lat="43.60831" lon="1.4151">
        <ele>130.5</ele>
        <time>2017-05-10T11:20:28Z</time>
      </trkpt>
      <trkpt lat="43.60826" lon="1.41522">
        <ele>130.4</ele>
        <time>2017-05-10T11:20:33Z</time>
      </trkpt>
      <trkpt lat="43.60819" lon="1.4153">
        <ele>130.4</ele>
        <time>2017-05-10T11:20:38Z</time>
      </trkpt>
      <trkpt lat="43.60803" lon="1.41558">
        <ele>130.3</ele>
        <time>2017-05-10T11:20:48Z</time>
      </trkpt>
      <trkpt lat="43.60791" lon="1.41587">
        <ele>129.4</ele>
        <time>2017-05-10T11:20:58Z</time>
      </trkpt>
      <trkpt lat="43.60777" lon="1.41614">
        <ele>128.1</ele>
        <time>2017-05-10T11:21:08Z</time>
      </trkpt>
      <trkpt lat="43.60769" lon="1.4164">
        <ele>127</ele>
        <time>2017-05-10T11:21:18Z</time>
      </trkpt>
      <trkpt lat="43.60755" lon="1.41658">
        <ele>127</ele>
        <time>2017-05-10T11:21:28Z</time>
      </trkpt>
      <trkpt lat="43.60741" lon="1.41676">
        <ele>126.9</ele>
        <time>2017-05-10T11:21:38Z</time>
      </trkpt>
      <trkpt lat="43.60728" lon="1.41709">
        <ele>127</ele>
        <time>2017-05-10T11:21:47Z</time>
      </trkpt>
      <trkpt lat="43.60717" lon="1.4173">
        <ele>127.2</ele>
        <time>2017-05-10T11:21:57Z</time>
      </trkpt>
      <trkpt lat="43.60699" lon="1.41741">
        <ele>127.2</ele>
        <time>2017-05-10T11:22:09Z</time>
      </trkpt>
      <trkpt lat="43.60691" lon="1.41776">
        <ele>127.1</ele>
        <time>2017-05-10T11:22:19Z</time>
      </trkpt>
      <trkpt lat="43.60685" lon="1.41814">
        <ele>127.1</ele>
        <time>2017-05-10T11:22:29Z</time>
      </trkpt>
      <trkpt lat="43.60671" lon="1.41833">
        <ele>127</ele>
        <time>2017-05-10T11:22:40Z</time>
      </trkpt>
      <trkpt lat="43.6067" lon="1.4186">
        <ele>126.8</ele>
        <time>2017-05-10T11:22:55Z</time>
      </trkpt>
      <trkpt lat="43.60668" lon="1.41885">
        <ele>126.8</ele>
        <time>2017-05-10T11:23:05Z</time>
      </trkpt>
      <trkpt lat="43.60656" lon="1.41925">
        <ele>126.6</ele>
        <time>2017-05-10T11:23:13Z</time>
      </trkpt>
      <trkpt lat="43.60645" lon="1.41953">
        <ele>126</ele>
        <time>2017-05-10T11:23:23Z</time>
      </trkpt>
      <trkpt lat="43.60639" lon="1.41977">
        <ele>125.8</ele>
        <time>2017-05-10T11:23:34Z</time>
      </trkpt>
      <trkpt lat="43.60629" lon="1.42003">
        <ele>125.8</ele>
        <time>2017-05-10T11:23:44Z</time>
      </trkpt>
      <trkpt lat="43.60621" lon="1.42039">
        <ele>125.8</ele>
        <time>2017-05-10T11:23:54Z</time>
      </trkpt>
      <trkpt lat="43.60626" lon="1.42072">
        <ele>126.6</ele>
        <time>2017-05-10T11:24:04Z</time>
      </trkpt>
      <trkpt lat="43.60625" lon="1.42109">
        <ele>126.8</ele>
        <time>2017-05-10T11:24:11Z</time>
      </trkpt>
      <trkpt lat="43.60613" lon="1.42129">
        <ele>127.1</ele>
        <time>2017-05-10T11:24:26Z</time>
      </trkpt>
      <trkpt lat="43.60603" lon="1.42152">
        <ele>127.3</ele>
        <time>2017-05-10T11:24:36Z</time>
      </trkpt>
      <trkpt lat="43.60599" lon="1.42181">
        <ele>127.8</ele>
        <time>2017-05-10T11:24:49Z</time>
      </trkpt>
      <trkpt lat="43.60581" lon="1.42209">
        <ele>128</ele>
        <time>2017-05-10T11:24:56Z</time>
      </trkpt>
      <trkpt lat="43.60581" lon="1.42253">
        <ele>128</ele>
        <time>2017-05-10T11:25:03Z</time>
      </trkpt>
      <trkpt lat="43.6058" lon="1.42294">
        <ele>128.1</ele>
        <time>2017-05-10T11:25:11Z</time>
      </trkpt>
      <trkpt lat="43.60589" lon="1.42333">
        <ele>128.2</ele>
        <time>2017-05-10T11:25:20Z</time>
      </trkpt>
      <trkpt lat="43.60604" lon="1.42351">
        <ele>128.2</ele>
        <time>2017-05-10T11:25:38Z</time>
      </trkpt>
      <trkpt lat="43.60595" lon="1.42388">
        <ele>128.2</ele>
        <time>2017-05-10T11:25:44Z</time>
      </trkpt>
      <trkpt lat="43.60597" lon="1.42427">
        <ele>128.2</ele>
        <time>2017-05-10T11:25:53Z</time>
      </trkpt>
      <trkpt lat="43.60594" lon="1.42453">
        <ele>128.2</ele>
        <time>2017-05-10T11:26:04Z</time>
      </trkpt>
      <trkpt lat="43.60596" lon="1.42483">
        <ele>128.1</ele>
        <time>2017-05-10T11:26:14Z</time>
      </trkpt>
      <trkpt lat="43.60597" lon="1.42515">
        <ele>128.1</ele>
        <time>2017-05-10T11:26:24Z</time>
      </trkpt>
      <trkpt lat="43.60598" lon="1.42547">
        <ele>128.1</ele>
        <time>2017-05-10T11:26:34Z</time>
      </trkpt>
      <trkpt lat="43.60594" lon="1.42575">
        <ele>128.1</ele>
        <time>2017-05-10T11:26:44Z</time>
      </trkpt>
      <trkpt lat="43.60588" lon="1.426">
        <ele>128.3</ele>
        <time>2017-05-10T11:26:54Z</time>
      </trkpt>
      <trkpt lat="43.60587" lon="1.42629">
        <ele>128.3</ele>
        <time>2017-05-10T11:27:04Z</time>
      </trkpt>
      <trkpt lat="43.6059" lon="1.42658">
        <ele>128.3</ele>
        <time>2017-05-10T11:27:14Z</time>
      </trkpt>
      <trkpt lat="43.60574" lon="1.42671">
        <ele>128.4</ele>
        <time>2017-05-10T11:27:24Z</time>
      </trkpt>
      <trkpt lat="43.60574" lon="1.42707">
        <ele>128.3</ele>
        <time>2017-05-10T11:27:34Z</time>
      </trkpt>
      <trkpt lat="43.60568" lon="1.42753">
        <ele>128.2</ele>
        <time>2017-05-10T11:27:44Z</time>
      </trkpt>
      <trkpt lat="43.60561" lon="1.42785">
        <ele>128.1</ele>
        <time>2017-05-10T11:27:52Z</time>
      </trkpt>
      <trkpt lat="43.60555" lon="1.42805">
        <ele>128</ele>
        <time>2017-05-10T11:28:03Z</time>
      </trkpt>
      <trkpt lat="43.60543" lon="1.42841">
        <ele>128</ele>
        <time>2017-05-10T11:28:06Z</time>
      </trkpt>
      <trkpt lat="43.60547" lon="1.42874">
        <ele>127.6</ele>
        <time>2017-05-10T11:28:16Z</time>
      </trkpt>
      <trkpt lat="43.60544" lon="1.42903">
        <ele>127.4</ele>
        <time>2017-05-10T11:28:26Z</time>
      </trkpt>
      <trkpt lat="43.60534" lon="1.42924">
        <ele>127.4</ele>
        <time>2017-05-10T11:28:37Z</time>
      </trkpt>
      <trkpt lat="43.6052" lon="1.42951">
        <ele>127.5</ele>
        <time>2017-05-10T11:28:47Z</time>
      </trkpt>
      <trkpt lat="43.60511" lon="1.42978">
        <ele>127.6</ele>
        <time>2017-05-10T11:28:57Z</time>
      </trkpt>
      <trkpt lat="43.605" lon="1.43006">
        <ele>128.1</ele>
        <time>2017-05-10T11:29:07Z</time>
      </trkpt>
      <trkpt lat="43.60494" lon="1.43033">
        <ele>128.7</ele>
        <time>2017-05-10T11:29:17Z</time>
      </trkpt>
      <trkpt lat="43.60485" lon="1.43057">
        <ele>129.1</ele>
        <time>2017-05-10T11:29:27Z</time>
      </trkpt>
      <trkpt lat="43.60469" lon="1.43074">
        <ele>129.4</ele>
        <time>2017-05-10T11:29:37Z</time>
      </trkpt>
      <trkpt lat="43.60447" lon="1.43081">
        <ele>130</ele>
        <time>2017-05-10T11:29:47Z</time>
      </trkpt>
      <trkpt lat="43.60423" lon="1.43081">
        <ele>130.2</ele>
        <time>2017-05-10T11:29:57Z</time>
      </trkpt>
      <trkpt lat="43.60406" lon="1.43062">
        <ele>130.5</ele>
        <time>2017-05-10T11:30:07Z</time>
      </trkpt>
      <trkpt lat="43.60392" lon="1.43045">
        <ele>131</ele>
        <time>2017-05-10T11:30:19Z</time>
      </trkpt>
      <trkpt lat="43.60391" lon="1.4302">
        <ele>131.7</ele>
        <time>2017-05-10T11:30:29Z</time>
      </trkpt>
      <trkpt lat="43.60396" lon="1.42992">
        <ele>132.3</ele>
        <time>2017-05-10T11:30:40Z</time>
      </trkpt>
      <trkpt lat="43.60403" lon="1.42964">
        <ele>132.8</ele>
        <time>2017-05-10T11:30:50Z</time>
      </trkpt>
      <trkpt lat="43.60406" lon="1.42937">
        <ele>132.9</ele>
        <time>2017-05-10T11:31:01Z</time>
      </trkpt>
      <trkpt lat="43.60407" lon="1.42907">
        <ele>133</ele>
        <time>2017-05-10T11:31:11Z</time>
      </trkpt>
      <trkpt lat="43.60423" lon="1.42878">
        <ele>133</ele>
        <time>2017-05-10T11:31:21Z</time>
      </trkpt>
      <trkpt lat="43.60445" lon="1.42853">
        <ele>133</ele>
        <time>2017-05-10T11:31:27Z</time>
      </trkpt>
      <trkpt lat="43.60461" lon="1.42838">
        <ele>133</ele>
        <time>2017-05-10T11:31:38Z</time>
      </trkpt>
      <trkpt lat="43.60462" lon="1.42835">
        <ele>133</ele>
        <time>2017-05-10T11:31:40Z</time>
      </trkpt>
      <trkpt lat="43.60468" lon="1.42822">
        <ele>132.9</ele>
        <time>2017-05-10T11:31:47Z</time>
      </trkpt>
      <trkpt lat="43.60469" lon="1.42808">
        <ele>132.7</ele>
        <time>2017-05-10T11:31:50Z</time>
      </trkpt>
      <trkpt lat="43.60472" lon="1.42766">
        <ele>132.2</ele>
        <time>2017-05-10T11:31:55Z</time>
      </trkpt>
      <trkpt lat="43.6048" lon="1.42775">
        <ele>131.7</ele>
        <time>2017-05-10T11:32:00Z</time>
      </trkpt>
      <trkpt lat="43.60483" lon="1.42776">
        <ele>131.2</ele>
        <time>2017-05-10T11:32:04Z</time>
      </trkpt>
      <trkpt lat="43.60483" lon="1.42776">
        <ele>134.4</ele>
        <time>2017-05-10T11:32:04Z</time>
      </trkpt>
      <trkpt lat="43.60483" lon="1.42776">
        <ele>134.4</ele>
        <time>2017-05-10T11:32:15Z</time>
      </trkpt>
      <trkpt lat="43.60505" lon="1.42791">
        <ele>131.2</ele>
        <time>2017-05-10T11:32:21Z</time>
      </trkpt>
      <trkpt lat="43.60495" lon="1.42814">
        <ele>131.2</ele>
        <time>2017-05-10T11:32:40Z</time>
      </trkpt>
      <trkpt lat="43.60474" lon="1.42811">
        <ele>131.8</ele>
        <time>2017-05-10T11:32:50Z</time>
      </trkpt>
      <trkpt lat="43.60455" lon="1.42802">
        <ele>133.5</ele>
        <time>2017-05-10T11:33:01Z</time>
      </trkpt>
      <trkpt lat="43.60427" lon="1.42794">
        <ele>133.7</ele>
        <time>2017-05-10T11:33:10Z</time>
      </trkpt>
      <trkpt lat="43.60401" lon="1.42796">
        <ele>134.4</ele>
        <time>2017-05-10T11:33:20Z</time>
      </trkpt>
      <trkpt lat="43.60381" lon="1.42795">
        <ele>135</ele>
        <time>2017-05-10T11:33:30Z</time>
      </trkpt>
      <trkpt lat="43.60358" lon="1.42792">
        <ele>136.1</ele>
        <time>2017-05-10T11:33:40Z</time>
      </trkpt>
      <trkpt lat="43.60334" lon="1.42792">
        <ele>136.3</ele>
        <time>2017-05-10T11:33:50Z</time>
      </trkpt>
      <trkpt lat="43.60308" lon="1.42788">
        <ele>136.9</ele>
        <time>2017-05-10T11:34:00Z</time>
      </trkpt>
      <trkpt lat="43.60288" lon="1.42789">
        <ele>136.9</ele>
        <time>2017-05-10T11:34:10Z</time>
      </trkpt>
      <trkpt lat="43.60273" lon="1.42789">
        <ele>136.9</ele>
        <time>2017-05-10T11:34:15Z</time>
      </trkpt>
      <trkpt lat="43.60253" lon="1.42785">
        <ele>137</ele>
        <time>2017-05-10T11:34:20Z</time>
      </trkpt>
      <trkpt lat="43.6024" lon="1.42783">
        <ele>137.1</ele>
        <time>2017-05-10T11:34:25Z</time>
      </trkpt>
      <trkpt lat="43.60228" lon="1.42781">
        <ele>137.1</ele>
        <time>2017-05-10T11:34:31Z</time>
      </trkpt>
      <trkpt lat="43.60218" lon="1.42781">
        <ele>137</ele>
        <time>2017-05-10T11:34:36Z</time>
      </trkpt>
      <trkpt lat="43.60208" lon="1.42779">
        <ele>136.8</ele>
        <time>2017-05-10T11:34:43Z</time>
      </trkpt>
      <trkpt lat="43.60206" lon="1.42779">
        <ele>135.3</ele>
        <time>2017-05-10T11:34:47Z</time>
      </trkpt>
      <trkpt lat="43.60206" lon="1.42779">
        <ele>134.2</ele>
        <time>2017-05-10T11:34:47Z</time>
      </trkpt>
      <trkpt lat="43.60206" lon="1.42779">
        <ele>134.2</ele>
        <time>2017-05-10T11:35:04Z</time>
      </trkpt>
      <trkpt lat="43.60216" lon="1.4275">
        <ele>136</ele>
        <time>2017-05-10T11:35:05Z</time>
      </trkpt>
      <trkpt lat="43.60227" lon="1.42739">
        <ele>135.8</ele>
        <time>2017-05-10T11:35:09Z</time>
      </trkpt>
      <trkpt lat="43.60236" lon="1.42726">
        <ele>135.7</ele>
        <time>2017-05-10T11:35:13Z</time>
      </trkpt>
      <trkpt lat="43.60245" lon="1.42711">
        <ele>135.2</ele>
        <time>2017-05-10T11:35:19Z</time>
      </trkpt>
      <trkpt lat="43.60251" lon="1.42701">
        <ele>133.9</ele>
        <time>2017-05-10T11:35:22Z</time>
      </trkpt>
      <trkpt lat="43.60256" lon="1.42689">
        <ele>133.7</ele>
        <time>2017-05-10T11:35:26Z</time>
      </trkpt>
      <trkpt lat="43.60264" lon="1.42673">
        <ele>133.5</ele>
        <time>2017-05-10T11:35:31Z</time>
      </trkpt>
      <trkpt lat="43.60271" lon="1.42655">
        <ele>133.3</ele>
        <time>2017-05-10T11:35:38Z</time>
      </trkpt>
      <trkpt lat="43.60277" lon="1.4264">
        <ele>132.9</ele>
        <time>2017-05-10T11:35:43Z</time>
      </trkpt>
      <trkpt lat="43.60283" lon="1.42622">
        <ele>132.7</ele>
        <time>2017-05-10T11:35:51Z</time>
      </trkpt>
      <trkpt lat="43.6029" lon="1.42604">
        <ele>132.6</ele>
        <time>2017-05-10T11:35:56Z</time>
      </trkpt>
      <trkpt lat="43.60294" lon="1.42585">
        <ele>132.6</ele>
        <time>2017-05-10T11:36:02Z</time>
      </trkpt>
      <trkpt lat="43.60296" lon="1.42572">
        <ele>132.6</ele>
        <time>2017-05-10T11:36:07Z</time>
      </trkpt>
      <trkpt lat="43.60301" lon="1.42551">
        <ele>132.5</ele>
        <time>2017-05-10T11:36:13Z</time>
      </trkpt>
      <trkpt lat="43.60303" lon="1.42536">
        <ele>132.5</ele>
        <time>2017-05-10T11:36:18Z</time>
      </trkpt>
      <trkpt lat="43.60307" lon="1.42524">
        <ele>132.5</ele>
        <time>2017-05-10T11:36:22Z</time>
      </trkpt>
      <trkpt lat="43.60307" lon="1.42511">
        <ele>132.4</ele>
        <time>2017-05-10T11:36:26Z</time>
      </trkpt>
      <trkpt lat="43.6031" lon="1.42498">
        <ele>132.4</ele>
        <time>2017-05-10T11:36:31Z</time>
      </trkpt>
      <trkpt lat="43.60312" lon="1.42482">
        <ele>132.4</ele>
        <time>2017-05-10T11:36:36Z</time>
      </trkpt>
      <trkpt lat="43.60315" lon="1.42463">
        <ele>132.3</ele>
        <time>2017-05-10T11:36:42Z</time>
      </trkpt>
      <trkpt lat="43.6032" lon="1.42444">
        <ele>132.3</ele>
        <time>2017-05-10T11:36:47Z</time>
      </trkpt>
      <trkpt lat="43.60324" lon="1.42431">
        <ele>132.2</ele>
        <time>2017-05-10T11:36:52Z</time>
      </trkpt>
      <trkpt lat="43.60328" lon="1.42418">
        <ele>132.2</ele>
        <time>2017-05-10T11:36:57Z</time>
      </trkpt>
      <trkpt lat="43.6033" lon="1.42412">
        <ele>132.2</ele>
        <time>2017-05-10T11:37:00Z</time>
      </trkpt>
      <trkpt lat="43.60332" lon="1.42406">
        <ele>132.2</ele>
        <time>2017-05-10T11:37:02Z</time>
      </trkpt>
      <trkpt lat="43.60338" lon="1.42389">
        <ele>132.2</ele>
        <time>2017-05-10T11:37:08Z</time>
      </trkpt>
      <trkpt lat="43.60341" lon="1.42374">
        <ele>132.1</ele>
        <time>2017-05-10T11:37:13Z</time>
      </trkpt>
      <trkpt lat="43.60346" lon="1.42356">
        <ele>132.1</ele>
        <time>2017-05-10T11:37:18Z</time>
      </trkpt>
      <trkpt lat="43.60347" lon="1.42338">
        <ele>132.1</ele>
        <time>2017-05-10T11:37:23Z</time>
      </trkpt>
      <trkpt lat="43.60351" lon="1.42319">
        <ele>132</ele>
        <time>2017-05-10T11:37:29Z</time>
      </trkpt>
      <trkpt lat="43.6035" lon="1.42311">
        <ele>131.9</ele>
        <time>2017-05-10T11:37:31Z</time>
      </trkpt>
      <trkpt lat="43.60351" lon="1.42301">
        <ele>131.9</ele>
        <time>2017-05-10T11:37:33Z</time>
      </trkpt>
      <trkpt lat="43.60352" lon="1.42294">
        <ele>131.9</ele>
        <time>2017-05-10T11:37:35Z</time>
      </trkpt>
      <trkpt lat="43.60354" lon="1.42289">
        <ele>131.9</ele>
        <time>2017-05-10T11:37:37Z</time>
      </trkpt>
      <trkpt lat="43.60356" lon="1.42276">
        <ele>131.9</ele>
        <time>2017-05-10T11:37:42Z</time>
      </trkpt>
      <trkpt lat="43.6036" lon="1.42261">
        <ele>131.9</ele>
        <time>2017-05-10T11:37:47Z</time>
      </trkpt>
      <trkpt lat="43.60362" lon="1.42238">
        <ele>131.9</ele>
        <time>2017-05-10T11:37:52Z</time>
      </trkpt>
      <trkpt lat="43.60365" lon="1.42224">
        <ele>131.9</ele>
        <time>2017-05-10T11:37:56Z</time>
      </trkpt>
      <trkpt lat="43.6037" lon="1.4221">
        <ele>131.8</ele>
        <time>2017-05-10T11:38:01Z</time>
      </trkpt>
      <trkpt lat="43.60374" lon="1.42191">
        <ele>131.8</ele>
        <time>2017-05-10T11:38:07Z</time>
      </trkpt>
      <trkpt lat="43.60377" lon="1.42178">
        <ele>131.8</ele>
        <time>2017-05-10T11:38:12Z</time>
      </trkpt>
      <trkpt lat="43.6038" lon="1.42163">
        <ele>131.7</ele>
        <time>2017-05-10T11:38:17Z</time>
      </trkpt>
      <trkpt lat="43.60382" lon="1.42149">
        <ele>131.7</ele>
        <time>2017-05-10T11:38:22Z</time>
      </trkpt>
      <trkpt lat="43.60384" lon="1.42139">
        <ele>131.7</ele>
        <time>2017-05-10T11:38:25Z</time>
      </trkpt>
      <trkpt lat="43.6039" lon="1.42119">
        <ele>131.7</ele>
        <time>2017-05-10T11:38:32Z</time>
      </trkpt>
      <trkpt lat="43.60393" lon="1.42101">
        <ele>131.7</ele>
        <time>2017-05-10T11:38:37Z</time>
      </trkpt>
      <trkpt lat="43.60395" lon="1.42087">
        <ele>131.6</ele>
        <time>2017-05-10T11:38:41Z</time>
      </trkpt>
      <trkpt lat="43.60398" lon="1.42067">
        <ele>131.6</ele>
        <time>2017-05-10T11:38:46Z</time>
      </trkpt>
      <trkpt lat="43.60402" lon="1.42048">
        <ele>131.6</ele>
        <time>2017-05-10T11:38:52Z</time>
      </trkpt>
      <trkpt lat="43.60406" lon="1.42028">
        <ele>131.5</ele>
        <time>2017-05-10T11:38:58Z</time>
      </trkpt>
      <trkpt lat="43.60411" lon="1.42005">
        <ele>131.5</ele>
        <time>2017-05-10T11:39:06Z</time>
      </trkpt>
      <trkpt lat="43.60417" lon="1.41985">
        <ele>131.5</ele>
        <time>2017-05-10T11:39:12Z</time>
      </trkpt>
      <trkpt lat="43.60419" lon="1.41978">
        <ele>131.4</ele>
        <time>2017-05-10T11:39:15Z</time>
      </trkpt>
      <trkpt lat="43.60421" lon="1.41967">
        <ele>131.4</ele>
        <time>2017-05-10T11:39:18Z</time>
      </trkpt>
      <trkpt lat="43.60424" lon="1.41953">
        <ele>131.3</ele>
        <time>2017-05-10T11:39:23Z</time>
      </trkpt>
      <trkpt lat="43.6043" lon="1.41938">
        <ele>131.3</ele>
        <time>2017-05-10T11:39:28Z</time>
      </trkpt>
      <trkpt lat="43.60436" lon="1.4192">
        <ele>131.2</ele>
        <time>2017-05-10T11:39:35Z</time>
      </trkpt>
      <trkpt lat="43.60441" lon="1.41904">
        <ele>131.2</ele>
        <time>2017-05-10T11:39:40Z</time>
      </trkpt>
      <trkpt lat="43.60445" lon="1.41893">
        <ele>131.2</ele>
        <time>2017-05-10T11:39:44Z</time>
      </trkpt>
      <trkpt lat="43.60453" lon="1.41872">
        <ele>131.2</ele>
        <time>2017-05-10T11:39:52Z</time>
      </trkpt>
      <trkpt lat="43.60459" lon="1.41854">
        <ele>131.2</ele>
        <time>2017-05-10T11:39:57Z</time>
      </trkpt>
      <trkpt lat="43.60464" lon="1.4184">
        <ele>131.2</ele>
        <time>2017-05-10T11:40:02Z</time>
      </trkpt>
      <trkpt lat="43.6047" lon="1.41827">
        <ele>131.2</ele>
        <time>2017-05-10T11:40:07Z</time>
      </trkpt>
      <trkpt lat="43.60475" lon="1.41814">
        <ele>131.2</ele>
        <time>2017-05-10T11:40:12Z</time>
      </trkpt>
      <trkpt lat="43.60477" lon="1.41802">
        <ele>131.3</ele>
        <time>2017-05-10T11:40:18Z</time>
      </trkpt>
      <trkpt lat="43.60477" lon="1.41801">
        <ele>131.3</ele>
        <time>2017-05-10T11:40:19Z</time>
      </trkpt>
      <trkpt lat="43.60477" lon="1.41798">
        <ele>130.6</ele>
        <time>2017-05-10T11:40:22Z</time>
      </trkpt>
      <trkpt lat="43.60477" lon="1.41798">
        <ele>133.6</ele>
        <time>2017-05-10T11:40:22Z</time>
      </trkpt>
      <trkpt lat="43.60477" lon="1.41798">
        <ele>133.6</ele>
        <time>2017-05-10T11:40:31Z</time>
      </trkpt>
      <trkpt lat="43.60461" lon="1.41788">
        <ele>131.3</ele>
        <time>2017-05-10T11:40:31Z</time>
      </trkpt>
      <trkpt lat="43.60452" lon="1.41781">
        <ele>131.3</ele>
        <time>2017-05-10T11:40:34Z</time>
      </trkpt>
      <trkpt lat="43.60443" lon="1.41774">
        <ele>131.3</ele>
        <time>2017-05-10T11:40:38Z</time>
      </trkpt>
      <trkpt lat="43.60435" lon="1.41768">
        <ele>131.3</ele>
        <time>2017-05-10T11:40:42Z</time>
      </trkpt>
      <trkpt lat="43.60425" lon="1.41754">
        <ele>131.2</ele>
        <time>2017-05-10T11:40:48Z</time>
      </trkpt>
      <trkpt lat="43.60416" lon="1.41744">
        <ele>130.2</ele>
        <time>2017-05-10T11:40:54Z</time>
      </trkpt>
      <trkpt lat="43.60405" lon="1.41731">
        <ele>129.2</ele>
        <time>2017-05-10T11:40:58Z</time>
      </trkpt>
      <trkpt lat="43.60386" lon="1.41708">
        <ele>128.8</ele>
        <time>2017-05-10T11:41:08Z</time>
      </trkpt>
      <trkpt lat="43.60372" lon="1.4168">
        <ele>128.4</ele>
        <time>2017-05-10T11:41:18Z</time>
      </trkpt>
      <trkpt lat="43.60365" lon="1.41671">
        <ele>128.4</ele>
        <time>2017-05-10T11:41:21Z</time>
      </trkpt>
      <trkpt lat="43.60353" lon="1.41658">
        <ele>128.3</ele>
        <time>2017-05-10T11:41:27Z</time>
      </trkpt>
      <trkpt lat="43.60344" lon="1.41649">
        <ele>128.3</ele>
        <time>2017-05-10T11:41:32Z</time>
      </trkpt>
      <trkpt lat="43.60325" lon="1.4163">
        <ele>128.4</ele>
        <time>2017-05-10T11:41:42Z</time>
      </trkpt>
      <trkpt lat="43.60309" lon="1.41614">
        <ele>128.5</ele>
        <time>2017-05-10T11:41:54Z</time>
      </trkpt>
      <trkpt lat="43.6029" lon="1.41593">
        <ele>128.5</ele>
        <time>2017-05-10T11:42:04Z</time>
      </trkpt>
      <trkpt lat="43.60265" lon="1.41577">
        <ele>128.7</ele>
        <time>2017-05-10T11:42:12Z</time>
      </trkpt>
      <trkpt lat="43.60241" lon="1.41568">
        <ele>129.2</ele>
        <time>2017-05-10T11:42:22Z</time>
      </trkpt>
      <trkpt lat="43.60215" lon="1.41558">
        <ele>130.2</ele>
        <time>2017-05-10T11:42:32Z</time>
      </trkpt>
      <trkpt lat="43.60197" lon="1.4155">
        <ele>131.8</ele>
        <time>2017-05-10T11:42:45Z</time>
      </trkpt>
      <trkpt lat="43.60181" lon="1.41564">
        <ele>132</ele>
        <time>2017-05-10T11:42:55Z</time>
      </trkpt>
      <trkpt lat="43.60172" lon="1.41589">
        <ele>132</ele>
        <time>2017-05-10T11:43:05Z</time>
      </trkpt>
      <trkpt lat="43.60163" lon="1.41617">
        <ele>132</ele>
        <time>2017-05-10T11:43:15Z</time>
      </trkpt>
      <trkpt lat="43.60157" lon="1.41648">
        <ele>131.8</ele>
        <time>2017-05-10T11:43:25Z</time>
      </trkpt>
      <trkpt lat="43.60145" lon="1.41684">
        <ele>131.5</ele>
        <time>2017-05-10T11:43:31Z</time>
      </trkpt>
      <trkpt lat="43.60138" lon="1.4171">
        <ele>131.3</ele>
        <time>2017-05-10T11:43:41Z</time>
      </trkpt>
      <trkpt lat="43.60124" lon="1.41733">
        <ele>131.3</ele>
        <time>2017-05-10T11:43:51Z</time>
      </trkpt>
      <trkpt lat="43.60117" lon="1.41759">
        <ele>131.2</ele>
        <time>2017-05-10T11:44:01Z</time>
      </trkpt>
      <trkpt lat="43.60102" lon="1.41792">
        <ele>131.1</ele>
        <time>2017-05-10T11:44:10Z</time>
      </trkpt>
      <trkpt lat="43.601" lon="1.41834">
        <ele>131</ele>
        <time>2017-05-10T11:44:20Z</time>
      </trkpt>
      <trkpt lat="43.60081" lon="1.41835">
        <ele>131</ele>
        <time>2017-05-10T11:44:34Z</time>
      </trkpt>
      <trkpt lat="43.60055" lon="1.41833">
        <ele>131</ele>
        <time>2017-05-10T11:44:44Z</time>
      </trkpt>
      <trkpt lat="43.60037" lon="1.41824">
        <ele>131</ele>
        <time>2017-05-10T11:44:56Z</time>
      </trkpt>
      <trkpt lat="43.60011" lon="1.41833">
        <ele>131.3</ele>
        <time>2017-05-10T11:45:03Z</time>
      </trkpt>
      <trkpt lat="43.59987" lon="1.4181">
        <ele>131.5</ele>
        <time>2017-05-10T11:45:11Z</time>
      </trkpt>
      <trkpt lat="43.59967" lon="1.41809">
        <ele>132.2</ele>
        <time>2017-05-10T11:45:26Z</time>
      </trkpt>
      <trkpt lat="43.59949" lon="1.4181">
        <ele>136.9</ele>
        <time>2017-05-10T11:45:36Z</time>
      </trkpt>
      <trkpt lat="43.59921" lon="1.41817">
        <ele>136.9</ele>
        <time>2017-05-10T11:45:45Z</time>
      </trkpt>
      <trkpt lat="43.59896" lon="1.41813">
        <ele>136.9</ele>
        <time>2017-05-10T11:45:55Z</time>
      </trkpt>
      <trkpt lat="43.59867" lon="1.4182">
        <ele>136.9</ele>
        <time>2017-05-10T11:46:04Z</time>
      </trkpt>
      <trkpt lat="43.59844" lon="1.4184">
        <ele>136.9</ele>
        <time>2017-05-10T11:46:12Z</time>
      </trkpt>
      <trkpt lat="43.59824" lon="1.41846">
        <ele>136.9</ele>
        <time>2017-05-10T11:46:22Z</time>
      </trkpt>
      <trkpt lat="43.59804" lon="1.41844">
        <ele>136.9</ele>
        <time>2017-05-10T11:46:32Z</time>
      </trkpt>
      <trkpt lat="43.59786" lon="1.41843">
        <ele>136.9</ele>
        <time>2017-05-10T11:46:42Z</time>
      </trkpt>
      <trkpt lat="43.59768" lon="1.41831">
        <ele>137.1</ele>
        <time>2017-05-10T11:46:52Z</time>
      </trkpt>
      <trkpt lat="43.5975" lon="1.41807">
        <ele>137.5</ele>
        <time>2017-05-10T11:47:02Z</time>
      </trkpt>
      <trkpt lat="43.59736" lon="1.41787">
        <ele>137.8</ele>
        <time>2017-05-10T11:47:12Z</time>
      </trkpt>
      <trkpt lat="43.5971" lon="1.41775">
        <ele>137.9</ele>
        <time>2017-05-10T11:47:22Z</time>
      </trkpt>
      <trkpt lat="43.59691" lon="1.41766">
        <ele>137.9</ele>
        <time>2017-05-10T11:47:32Z</time>
      </trkpt>
      <trkpt lat="43.59666" lon="1.4174">
        <ele>137.9</ele>
        <time>2017-05-10T11:47:39Z</time>
      </trkpt>
      <trkpt lat="43.59648" lon="1.41722">
        <ele>137.9</ele>
        <time>2017-05-10T11:47:49Z</time>
      </trkpt>
      <trkpt lat="43.59631" lon="1.41693">
        <ele>137.9</ele>
        <time>2017-05-10T11:47:57Z</time>
      </trkpt>
      <trkpt lat="43.59618" lon="1.4167">
        <ele>137.9</ele>
        <time>2017-05-10T11:48:07Z</time>
      </trkpt>
      <trkpt lat="43.59601" lon="1.41636">
        <ele>137.9</ele>
        <time>2017-05-10T11:48:17Z</time>
      </trkpt>
      <trkpt lat="43.59584" lon="1.41625">
        <ele>137.9</ele>
        <time>2017-05-10T11:48:28Z</time>
      </trkpt>
      <trkpt lat="43.59571" lon="1.41604">
        <ele>137.9</ele>
        <time>2017-05-10T11:48:39Z</time>
      </trkpt>
      <trkpt lat="43.59549" lon="1.41579">
        <ele>137.9</ele>
        <time>2017-05-10T11:48:48Z</time>
      </trkpt>
      <trkpt lat="43.59549" lon="1.41579">
        <ele>139.2</ele>
        <time>2017-05-10T11:48:56Z</time>
      </trkpt>
      <trkpt lat="43.59549" lon="1.41579">
        <ele>139.2</ele>
        <time>2017-05-10T11:48:59Z</time>
      </trkpt>
    </trkseg>
  </trk>
</gpx>